KSIY

Details ICAO KSIY
Name Siskiyou Co
Region United States
Timezone America/Los_Angeles (UTC-8.0)
Plans Departing 1
Arriving 0
Stats Elevation 2,648 ft / 807 m (AMSL)
Location 41.781441° -122.468109°
Runways 1
Magnetic Variation 14.397° E
Sunrise 2017-12-13 15:30:24 UTC / 2017-12-13 07:30:24 Local
Sunset 2017-12-14 00:40:54 UTC / 2017-12-13 16:40:54 Local
Advertisement - Login to hide

Runways

ID Width Length Bearing (true) Bearing (mag) Surface Threshold Offset Overrun Length
17 150 ft / 46 m 7,493 ft / 2,284 m 191.03° 176.63° Asphalt 0 ft / 0 m 685 ft / 209 m
35 150 ft / 46 m 7,493 ft / 2,284 m 11.03° 356.63° Asphalt 0 ft / 0 m 1,000 ft / 305 m

Map

Weather


0- 5 10 15 20 25 30 35+ Temperature / ° C

Clouds and Precipitation
Forecast for 2017-12-13 18:00 UTC. Updated an hour ago

Ground ~20,000 ft ~40,000 ft Winds

METAR

KSIY 131753Z AUTO 00000KT 10SM CLR M02/M03 A3038 RMK AO2 SLP322 I6000 T10171033 11017 21078 56003

TAF

Not found

Frequencies

Recorded 121.12 MHz ASOS
Unicom 123.00 MHz CTAF/UNICOM
Warning: Do not use this data for real-world aviation or navigation. No guarantee of current accuracy is given.